Time;durP1;ratioP1;P1;durP2;ratioP2;P2;SDS_P1;SDS_P2;PMS_P1;PMS_P2;Temp;Humidity;BMP_temperature;BMP_pressure;BME280_temperature;BME280_humidity;BME280_pressure;Samples;Min_cycle;Max_cycle;Signal;HPM_P1;HPM_P2
2021/10/03 00:00:12;;;;;;;21.10;3.80;;;;;;;;;;5070896;28;20040;-36
2021/10/03 00:02:43;;;;;;;21.38;3.58;;;;;;;;;;5069638;28;20028;-36
2021/10/03 00:05:12;;;;;;;17.00;3.30;;;;;;;;;;5076566;28;20032;-38
2021/10/03 00:07:41;;;;;;;23.65;3.20;;;;;;;;;;5074147;28;20037;-37
2021/10/03 00:10:10;;;;;;;27.15;3.47;;;;;;;;;;5077083;28;20040;-37
2021/10/03 00:12:38;;;;;;;17.40;3.58;;;;;;;;;;5060858;28;20020;-36
2021/10/03 00:15:07;;;;;;;24.83;3.92;;;;;;;;;;5070902;28;20028;-36
2021/10/03 00:17:34;;;;;;;22.58;3.55;;;;;;;;;;5073850;28;20111;-38
2021/10/03 00:20:02;;;;;;;23.17;3.92;;;;;;;;;;5068849;28;20023;-40
2021/10/03 00:22:31;;;;;;;20.73;3.30;;;;;;;;;;5054262;28;20472;-36
2021/10/03 00:24:59;;;;;;;26.33;3.53;;;;;;;;;;5069432;28;20024;-39
2021/10/03 00:27:27;;;;;;;24.88;3.60;;;;;;;;;;5064429;28;20024;-35
2021/10/03 00:29:54;;;;;;;15.52;3.00;;;;;;;;;;5068818;28;20507;-36
2021/10/03 00:32:21;;;;;;;17.85;2.47;;;;;;;;;;5076270;28;20777;-35
2021/10/03 00:34:48;;;;;;;17.55;3.35;;;;;;;;;;5065316;28;20480;-39
2021/10/03 00:37:16;;;;;;;13.48;3.15;;;;;;;;;;5068375;28;20063;-37
2021/10/03 00:39:43;;;;;;;28.42;3.83;;;;;;;;;;5069325;28;20031;-41
2021/10/03 00:42:10;;;;;;;29.65;3.45;;;;;;;;;;5076360;28;20020;-42
2021/10/03 00:44:37;;;;;;;25.90;3.78;;;;;;;;;;5065662;28;20142;-44
2021/10/03 00:47:04;;;;;;;16.60;3.60;;;;;;;;;;5068527;28;20036;-40
2021/10/03 00:49:34;;;;;;;18.05;3.90;;;;;;;;;;5078099;28;20032;-40
2021/10/03 00:52:02;;;;;;;22.80;5.35;;;;;;;;;;5082896;28;20050;-41
2021/10/03 00:54:29;;;;;;;28.10;4.53;;;;;;;;;;5063630;28;20064;-41
2021/10/03 00:56:56;;;;;;;29.88;5.43;;;;;;;;;;5087694;28;20020;-44
2021/10/03 00:59:23;;;;;;;25.67;5.10;;;;;;;;;;5068763;28;20052;-43
2021/10/03 01:01:50;;;;;;;17.05;5.47;;;;;;;;;;5078514;28;20028;-41
2021/10/03 01:04:17;;;;;;;25.05;5.47;;;;;;;;;;5078035;28;20070;-43
2021/10/03 01:06:45;;;;;;;25.75;5.38;;;;;;;;;;5079363;28;20031;-44
2021/10/03 01:09:13;;;;;;;26.45;5.95;;;;;;;;;;5090478;28;20016;-43
2021/10/03 01:11:40;;;;;;;21.27;6.88;;;;;;;;;;5092762;28;20588;-39
2021/10/03 01:14:07;;;;;;;32.63;7.07;;;;;;;;;;5092220;28;20517;-41
2021/10/03 01:16:34;;;;;;;20.33;6.63;;;;;;;;;;5092860;28;20287;-40
2021/10/03 01:19:01;;;;;;;29.42;6.70;;;;;;;;;;5060969;28;20040;-40
2021/10/03 01:21:28;;;;;;;27.13;7.60;;;;;;;;;;5075456;28;20051;-41
2021/10/03 01:23:56;;;;;;;29.55;8.07;;;;;;;;;;5054468;28;20411;-40
2021/10/03 01:26:24;;;;;;;27.30;7.82;;;;;;;;;;5091997;28;20024;-42
2021/10/03 01:28:53;;;;;;;31.90;8.55;;;;;;;;;;5076348;28;20384;-41
2021/10/03 01:31:21;;;;;;;29.60;7.93;;;;;;;;;;5072384;28;20035;-40
2021/10/03 01:33:49;;;;;;;33.70;7.85;;;;;;;;;;5071296;28;20017;-41
2021/10/03 01:36:16;;;;;;;37.28;9.02;;;;;;;;;;5066936;28;20118;-40
2021/10/03 01:38:43;;;;;;;51.13;10.40;;;;;;;;;;5078025;28;20512;-39
2021/10/03 01:41:10;;;;;;;35.17;9.05;;;;;;;;;;5072669;28;20017;-40
2021/10/03 01:43:38;;;;;;;33.22;8.98;;;;;;;;;;5071732;28;20055;-42
2021/10/03 01:46:05;;;;;;;37.95;8.70;;;;;;;;;;5071843;28;20433;-41
2021/10/03 01:48:32;;;;;;;31.13;8.80;;;;;;;;;;5070785;28;20016;-39
2021/10/03 01:51:01;;;;;;;30.48;9.23;;;;;;;;;;5070484;28;20045;-41
2021/10/03 01:53:29;;;;;;;28.13;9.35;;;;;;;;;;5052906;28;20056;-40
2021/10/03 01:55:59;;;;;;;38.40;10.50;;;;;;;;;;5071293;28;20111;-39
2021/10/03 01:58:27;;;;;;;37.08;10.60;;;;;;;;;;5077258;28;20482;-39
2021/10/03 02:00:57;;;;;;;34.20;10.18;;;;;;;;;;5089852;28;20032;-39
2021/10/03 02:03:24;;;;;;;46.72;10.73;;;;;;;;;;5091320;28;20491;-40
2021/10/03 02:05:51;;;;;;;38.97;9.88;;;;;;;;;;5067776;28;20032;-40
2021/10/03 02:08:19;;;;;;;40.35;9.75;;;;;;;;;;5069174;28;21363;-39
2021/10/03 02:10:48;;;;;;;25.95;10.00;;;;;;;;;;5061235;28;20181;-39
2021/10/03 02:13:15;;;;;;;34.55;9.85;;;;;;;;;;5049025;28;20056;-40
2021/10/03 02:15:43;;;;;;;31.48;10.45;;;;;;;;;;5069233;28;20035;-41
2021/10/03 02:18:11;;;;;;;35.25;11.02;;;;;;;;;;5065559;28;20031;-43
2021/10/03 02:20:39;;;;;;;40.53;10.48;;;;;;;;;;5070272;28;20963;-40
2021/10/03 02:23:08;;;;;;;33.88;9.90;;;;;;;;;;5070298;28;20020;-40
2021/10/03 02:25:43;;;;;;;31.98;10.07;;;;;;;;;;5069618;28;20170;-39
2021/10/03 02:28:14;;;;;;;33.97;11.32;;;;;;;;;;5070771;28;20012;-41
2021/10/03 02:30:42;;;;;;;32.53;10.68;;;;;;;;;;5070639;28;20032;-41
2021/10/03 02:33:10;;;;;;;30.70;11.43;;;;;;;;;;5070010;28;20487;-43
2021/10/03 02:35:40;;;;;;;32.88;11.15;;;;;;;;;;5070675;28;20025;-41
2021/10/03 02:38:08;;;;;;;39.58;11.63;;;;;;;;;;5067738;28;20027;-40
2021/10/03 02:40:35;;;;;;;31.67;11.55;;;;;;;;;;5089690;28;20058;-41
2021/10/03 02:43:05;;;;;;;29.85;10.75;;;;;;;;;;5073112;28;20487;-42
2021/10/03 02:45:37;;;;;;;38.05;11.38;;;;;;;;;;5068977;28;20498;-42
2021/10/03 02:48:05;;;;;;;39.05;12.45;;;;;;;;;;5070721;28;20231;-42
2021/10/03 02:50:32;;;;;;;28.10;10.15;;;;;;;;;;5069943;28;20492;-40
2021/10/03 02:52:59;;;;;;;35.58;10.77;;;;;;;;;;5078091;28;20066;-43
2021/10/03 02:55:26;;;;;;;31.40;11.95;;;;;;;;;;5065452;28;20159;-39
2021/10/03 02:57:53;;;;;;;31.50;11.48;;;;;;;;;;5060335;28;20392;-39
2021/10/03 03:00:20;;;;;;;32.40;11.60;;;;;;;;;;5089022;28;20027;-40
2021/10/03 03:02:47;;;;;;;31.33;11.02;;;;;;;;;;5069055;28;20012;-40
2021/10/03 03:05:14;;;;;;;34.38;12.48;;;;;;;;;;5087875;28;20024;-39
2021/10/03 03:07:41;;;;;;;38.03;12.50;;;;;;;;;;5087005;28;20039;-42
2021/10/03 03:10:09;;;;;;;42.55;11.93;;;;;;;;;;5090544;28;20115;-40
2021/10/03 03:12:37;;;;;;;36.92;12.63;;;;;;;;;;5089924;28;20050;-40
2021/10/03 03:15:08;;;;;;;32.67;13.15;;;;;;;;;;5089662;28;20024;-39
2021/10/03 03:17:35;;;;;;;41.03;14.15;;;;;;;;;;5090199;28;20501;-40
2021/10/03 03:20:02;;;;;;;41.83;12.52;;;;;;;;;;5091002;28;20047;-38
2021/10/03 03:22:29;;;;;;;42.65;12.82;;;;;;;;;;5077868;28;20100;-38
2021/10/03 03:24:56;;;;;;;30.23;12.43;;;;;;;;;;5069512;28;20025;-39
2021/10/03 03:27:23;;;;;;;35.58;12.20;;;;;;;;;;5070609;28;20078;-39
2021/10/03 03:29:50;;;;;;;36.10;12.73;;;;;;;;;;5070423;28;20421;-40
2021/10/03 03:32:17;;;;;;;42.47;12.68;;;;;;;;;;5052229;28;20378;-40
2021/10/03 03:34:44;;;;;;;46.47;13.43;;;;;;;;;;5070159;28;20071;-39
2021/10/03 03:37:11;;;;;;;51.55;13.20;;;;;;;;;;5061463;28;20025;-42
2021/10/03 03:39:38;;;;;;;38.85;12.57;;;;;;;;;;5061139;28;20056;-40
2021/10/03 03:42:05;;;;;;;56.53;12.38;;;;;;;;;;5065154;28;20022;-40
2021/10/03 03:44:33;;;;;;;46.85;12.77;;;;;;;;;;5058932;28;20024;-40
2021/10/03 03:47:00;;;;;;;56.22;12.55;;;;;;;;;;5055036;28;20020;-40
2021/10/03 03:49:28;;;;;;;48.92;13.18;;;;;;;;;;5065805;28;20020;-42
2021/10/03 03:51:55;;;;;;;36.05;12.32;;;;;;;;;;5064967;28;20520;-41
2021/10/03 03:54:22;;;;;;;47.33;12.82;;;;;;;;;;5060860;28;20029;-41
2021/10/03 03:56:49;;;;;;;38.53;11.55;;;;;;;;;;5064069;28;20032;-39
2021/10/03 03:59:16;;;;;;;41.45;12.05;;;;;;;;;;5060651;28;20090;-39
2021/10/03 04:01:43;;;;;;;41.47;13.23;;;;;;;;;;5077943;28;20031;-41
2021/10/03 04:04:10;;;;;;;52.83;12.93;;;;;;;;;;5073371;28;20029;-40
2021/10/03 04:06:37;;;;;;;54.30;13.02;;;;;;;;;;5074834;28;20048;-40
2021/10/03 04:09:06;;;;;;;58.20;14.10;;;;;;;;;;5073278;28;20025;-38
2021/10/03 04:11:33;;;;;;;49.58;12.05;;;;;;;;;;5072090;28;20021;-40
2021/10/03 04:14:00;;;;;;;44.80;11.95;;;;;;;;;;5068598;28;20023;-40
2021/10/03 04:16:27;;;;;;;51.72;12.93;;;;;;;;;;5071799;28;20035;-41
2021/10/03 04:18:54;;;;;;;37.63;11.88;;;;;;;;;;5061349;28;20017;-40
2021/10/03 04:21:21;;;;;;;40.78;12.43;;;;;;;;;;5066181;28;20028;-41
2021/10/03 04:23:48;;;;;;;49.38;13.52;;;;;;;;;;5058363;28;20162;-40
2021/10/03 04:26:15;;;;;;;38.70;13.13;;;;;;;;;;5064332;28;20124;-40
2021/10/03 04:28:42;;;;;;;34.47;11.82;;;;;;;;;;5059119;28;20033;-40
2021/10/03 04:31:09;;;;;;;37.13;12.50;;;;;;;;;;5068255;28;20396;-43
2021/10/03 04:33:41;;;;;;;36.88;11.48;;;;;;;;;;5063400;28;20068;-43
2021/10/03 04:36:09;;;;;;;46.53;12.95;;;;;;;;;;5066971;28;20075;-42
2021/10/03 04:38:36;;;;;;;42.30;12.77;;;;;;;;;;5065567;28;20047;-43
2021/10/03 04:41:04;;;;;;;44.03;13.27;;;;;;;;;;5070749;28;20115;-40
2021/10/03 04:43:31;;;;;;;36.75;12.43;;;;;;;;;;5067753;28;20028;-41
2021/10/03 04:45:58;;;;;;;42.70;12.75;;;;;;;;;;5072807;28;20029;-41
2021/10/03 04:48:25;;;;;;;45.90;13.65;;;;;;;;;;5072959;28;20026;-40
2021/10/03 04:50:52;;;;;;;36.88;12.98;;;;;;;;;;5064668;28;20408;-40
2021/10/03 04:53:19;;;;;;;52.78;14.25;;;;;;;;;;5072592;28;20031;-41
2021/10/03 04:55:46;;;;;;;37.10;13.80;;;;;;;;;;5076434;28;20106;-41
2021/10/03 04:58:13;;;;;;;34.45;13.55;;;;;;;;;;5071116;28;20017;-43
2021/10/03 05:00:40;;;;;;;38.20;13.68;;;;;;;;;;5072937;28;20035;-44
2021/10/03 05:03:07;;;;;;;33.17;11.82;;;;;;;;;;5078438;28;20028;-44
2021/10/03 05:05:36;;;;;;;37.35;13.30;;;;;;;;;;5072641;28;20476;-44
2021/10/03 05:08:03;;;;;;;36.58;14.27;;;;;;;;;;5069653;28;20023;-38
2021/10/03 05:10:31;;;;;;;35.58;14.38;;;;;;;;;;5067550;28;20426;-39
2021/10/03 05:12:58;;;;;;;37.70;14.40;;;;;;;;;;5068368;28;20123;-41
2021/10/03 05:15:25;;;;;;;39.80;14.27;;;;;;;;;;5046254;28;20039;-43
2021/10/03 05:17:52;;;;;;;35.88;13.85;;;;;;;;;;5063939;28;20068;-41
2021/10/03 05:20:19;;;;;;;35.15;14.32;;;;;;;;;;5065681;28;20358;-42
2021/10/03 05:22:46;;;;;;;32.33;14.10;;;;;;;;;;5055054;28;20032;-41
2021/10/03 05:25:13;;;;;;;32.78;11.90;;;;;;;;;;5072255;28;20032;-42
2021/10/03 05:27:40;;;;;;;33.22;12.70;;;;;;;;;;5057375;28;20024;-41
2021/10/03 05:30:07;;;;;;;35.92;13.52;;;;;;;;;;5062574;28;20075;-43
2021/10/03 05:32:34;;;;;;;38.03;13.45;;;;;;;;;;5066307;28;20028;-40
2021/10/03 05:35:01;;;;;;;28.90;12.75;;;;;;;;;;5071917;28;20028;-60
2021/10/03 05:37:28;;;;;;;40.08;14.15;;;;;;;;;;5069916;28;20017;-44
2021/10/03 05:39:55;;;;;;;45.28;14.98;;;;;;;;;;5077352;28;20067;-50
2021/10/03 05:42:22;;;;;;;38.20;13.85;;;;;;;;;;5069580;28;20033;-53
2021/10/03 05:44:49;;;;;;;30.45;13.25;;;;;;;;;;5071672;28;20024;-46
2021/10/03 05:47:16;;;;;;;39.90;13.25;;;;;;;;;;5071842;28;20017;-41
2021/10/03 05:49:43;;;;;;;31.27;12.70;;;;;;;;;;5072094;28;20119;-42
2021/10/03 05:52:10;;;;;;;37.08;13.05;;;;;;;;;;5071906;28;20036;-57
2021/10/03 05:54:37;;;;;;;36.53;13.55;;;;;;;;;;5081590;28;20381;-39
2021/10/03 05:57:04;;;;;;;30.65;12.77;;;;;;;;;;5090793;28;20117;-44
2021/10/03 05:59:31;;;;;;;30.08;12.65;;;;;;;;;;5090518;28;20024;-41
2021/10/03 06:01:58;;;;;;;24.35;12.02;;;;;;;;;;5090093;28;20024;-46
2021/10/03 06:04:26;;;;;;;35.05;13.27;;;;;;;;;;5090462;28;20514;-39
2021/10/03 06:06:53;;;;;;;35.22;12.98;;;;;;;;;;5077134;28;20032;-46
2021/10/03 06:09:20;;;;;;;29.85;12.88;;;;;;;;;;5089279;28;20384;-41
2021/10/03 06:11:47;;;;;;;25.20;12.65;;;;;;;;;;5082007;28;20017;-42
2021/10/03 06:14:14;;;;;;;24.02;12.20;;;;;;;;;;5090155;28;20018;-49
2021/10/03 06:16:42;;;;;;;30.55;12.13;;;;;;;;;;5089536;28;20024;-42
2021/10/03 06:19:10;;;;;;;26.92;11.88;;;;;;;;;;5092502;28;20424;-48
2021/10/03 06:21:39;;;;;;;22.13;11.98;;;;;;;;;;5092054;28;20062;-45
2021/10/03 06:24:07;;;;;;;26.40;11.77;;;;;;;;;;5092500;28;20024;-48
2021/10/03 06:26:34;;;;;;;21.60;11.00;;;;;;;;;;5092315;28;20028;-41
2021/10/03 06:29:03;;;;;;;21.92;10.73;;;;;;;;;;5092488;28;20466;-46
2021/10/03 06:31:30;;;;;;;22.02;10.50;;;;;;;;;;5092137;28;20031;-45
2021/10/03 06:33:57;;;;;;;28.15;11.05;;;;;;;;;;5092529;28;20024;-46
2021/10/03 06:36:24;;;;;;;20.38;10.63;;;;;;;;;;5092542;28;20028;-48
2021/10/03 06:38:51;;;;;;;22.40;10.20;;;;;;;;;;5092322;28;20103;-42
2021/10/03 06:41:18;;;;;;;24.25;10.98;;;;;;;;;;5092088;28;20023;-42
2021/10/03 06:43:45;;;;;;;24.58;10.63;;;;;;;;;;5092137;28;20023;-41
2021/10/03 06:46:12;;;;;;;18.77;9.77;;;;;;;;;;5092193;28;20024;-41
2021/10/03 06:48:39;;;;;;;20.95;9.75;;;;;;;;;;5074082;28;20073;-41
2021/10/03 06:51:06;;;;;;;18.60;8.75;;;;;;;;;;5092179;28;20046;-41
2021/10/03 06:53:34;;;;;;;24.80;10.95;;;;;;;;;;5092056;28;20044;-43
2021/10/03 06:56:02;;;;;;;18.20;9.40;;;;;;;;;;5084093;28;20020;-41
2021/10/03 06:58:29;;;;;;;16.33;8.90;;;;;;;;;;5035498;28;20444;-41
2021/10/03 07:00:56;;;;;;;17.13;8.85;;;;;;;;;;5051384;28;20025;-40
2021/10/03 07:03:23;;;;;;;20.27;8.93;;;;;;;;;;5051748;28;20036;-42
2021/10/03 07:05:50;;;;;;;19.00;9.00;;;;;;;;;;5051923;28;20047;-41
2021/10/03 07:08:17;;;;;;;18.70;9.60;;;;;;;;;;5051616;28;20025;-42
2021/10/03 07:10:45;;;;;;;19.85;8.80;;;;;;;;;;5051776;28;20116;-43
2021/10/03 07:13:12;;;;;;;18.58;8.27;;;;;;;;;;5051825;28;20028;-42
2021/10/03 07:15:40;;;;;;;17.63;8.07;;;;;;;;;;5051655;28;20477;-41
2021/10/03 07:18:07;;;;;;;18.30;7.40;;;;;;;;;;5051754;28;20103;-40
2021/10/03 07:20:35;;;;;;;19.27;8.27;;;;;;;;;;5051785;28;20032;-51
2021/10/03 07:23:02;;;;;;;16.15;7.80;;;;;;;;;;5051283;28;20044;-58
2021/10/03 07:25:29;;;;;;;15.65;7.90;;;;;;;;;;5051629;28;20033;-51
2021/10/03 07:27:56;;;;;;;16.02;8.55;;;;;;;;;;5051885;28;20017;-43
2021/10/03 07:30:23;;;;;;;16.67;7.63;;;;;;;;;;5052943;28;20420;-39
2021/10/03 07:32:50;;;;;;;15.02;7.70;;;;;;;;;;5055411;28;20074;-40
2021/10/03 07:35:17;;;;;;;15.52;7.40;;;;;;;;;;5055750;28;20072;-42
2021/10/03 07:37:44;;;;;;;13.82;7.32;;;;;;;;;;5055730;28;20025;-41
2021/10/03 07:40:12;;;;;;;15.60;7.45;;;;;;;;;;5055404;28;20066;-41
2021/10/03 07:42:42;;;;;;;14.18;7.18;;;;;;;;;;5055211;28;20118;-41
2021/10/03 07:45:09;;;;;;;14.57;7.25;;;;;;;;;;5055145;28;20377;-42
2021/10/03 07:47:37;;;;;;;13.30;7.07;;;;;;;;;;5055379;28;20017;-40
2021/10/03 07:50:04;;;;;;;12.38;6.45;;;;;;;;;;5055255;28;20033;-45
2021/10/03 07:52:31;;;;;;;14.88;7.10;;;;;;;;;;5054921;28;20497;-41
2021/10/03 07:54:58;;;;;;;15.52;7.15;;;;;;;;;;5055229;28;20024;-41
2021/10/03 07:57:25;;;;;;;12.95;6.47;;;;;;;;;;5055143;28;20021;-41
2021/10/03 07:59:52;;;;;;;11.88;6.47;;;;;;;;;;5055148;28;20036;-40
2021/10/03 08:02:19;;;;;;;12.27;6.47;;;;;;;;;;5054870;28;20477;-42
2021/10/03 08:04:46;;;;;;;12.45;5.57;;;;;;;;;;5054713;28;20047;-41
2021/10/03 08:07:13;;;;;;;9.95;6.22;;;;;;;;;;5055077;28;20072;-42
2021/10/03 08:09:42;;;;;;;12.23;6.30;;;;;;;;;;5054879;28;20036;-41
2021/10/03 08:12:09;;;;;;;10.93;5.97;;;;;;;;;;5054688;28;20032;-40
2021/10/03 08:14:36;;;;;;;10.52;6.25;;;;;;;;;;5054927;28;20033;-40
2021/10/03 08:17:03;;;;;;;12.02;6.00;;;;;;;;;;5054538;28;20070;-50
2021/10/03 08:19:30;;;;;;;10.18;5.72;;;;;;;;;;5054722;28;20024;-41
2021/10/03 08:21:57;;;;;;;11.50;6.05;;;;;;;;;;5054792;28;20025;-40
2021/10/03 08:24:24;;;;;;;9.40;5.43;;;;;;;;;;5054578;28;20025;-40
2021/10/03 08:26:51;;;;;;;9.15;5.43;;;;;;;;;;5054437;28;20195;-41
2021/10/03 08:29:19;;;;;;;10.68;5.78;;;;;;;;;;5054419;28;20025;-40
2021/10/03 08:31:46;;;;;;;11.57;6.28;;;;;;;;;;5054421;28;20488;-41
2021/10/03 08:34:13;;;;;;;11.18;5.50;;;;;;;;;;5054461;28;20118;-40
2021/10/03 08:36:40;;;;;;;10.48;4.90;;;;;;;;;;5054195;28;20358;-40
2021/10/03 08:39:07;;;;;;;13.65;5.55;;;;;;;;;;5054404;28;20029;-40
2021/10/03 08:41:34;;;;;;;10.55;5.30;;;;;;;;;;5053260;28;20026;-40
2021/10/03 08:44:01;;;;;;;9.70;5.00;;;;;;;;;;5054258;28;20079;-41
2021/10/03 08:46:29;;;;;;;10.65;5.95;;;;;;;;;;5054268;28;20055;-39
2021/10/03 08:48:57;;;;;;;7.82;5.05;;;;;;;;;;5053983;28;20025;-41
2021/10/03 08:51:24;;;;;;;8.57;4.88;;;;;;;;;;5053753;28;20488;-41
2021/10/03 08:53:52;;;;;;;10.00;4.82;;;;;;;;;;5054288;28;20021;-42
2021/10/03 08:56:19;;;;;;;10.15;4.68;;;;;;;;;;5054031;28;20021;-40
2021/10/03 08:58:46;;;;;;;10.02;5.15;;;;;;;;;;5053552;28;20029;-42
2021/10/03 09:01:13;;;;;;;10.65;4.90;;;;;;;;;;5053995;28;20021;-42
2021/10/03 09:03:41;;;;;;;7.03;4.80;;;;;;;;;;5054087;28;20083;-44
2021/10/03 09:06:08;;;;;;;8.27;4.53;;;;;;;;;;5053836;28;20096;-41
2021/10/03 09:08:39;;;;;;;8.90;4.57;;;;;;;;;;5035975;28;20032;-41
2021/10/03 09:11:08;;;;;;;8.30;4.63;;;;;;;;;;5053498;28;20033;-42
2021/10/03 09:13:35;;;;;;;8.00;4.63;;;;;;;;;;5053511;28;20401;-40
2021/10/03 09:16:15;;;;;;;7.40;4.20;;;;;;;;;;5053736;28;20032;-39
2021/10/03 09:18:42;;;;;;;8.63;4.25;;;;;;;;;;5035840;28;20052;-42
2021/10/03 09:21:10;;;;;;;7.68;3.90;;;;;;;;;;5053585;28;20016;-42
2021/10/03 09:23:37;;;;;;;6.78;4.15;;;;;;;;;;5053338;28;20404;-41
2021/10/03 09:26:11;;;;;;;9.07;4.47;;;;;;;;;;5053474;28;20028;-39
2021/10/03 09:28:38;;;;;;;7.03;3.92;;;;;;;;;;5053398;28;20017;-41
2021/10/03 09:31:06;;;;;;;7.28;3.90;;;;;;;;;;5053338;28;20040;-39
2021/10/03 09:33:44;;;;;;;7.38;4.13;;;;;;;;;;5053350;28;20025;-41
2021/10/03 09:36:12;;;;;;;6.93;3.88;;;;;;;;;;5035335;28;20111;-44
2021/10/03 09:38:46;;;;;;;6.72;4.38;;;;;;;;;;5052984;28;20021;-43
2021/10/03 09:41:13;;;;;;;6.38;3.83;;;;;;;;;;5053159;28;20645;-41
2021/10/03 09:43:42;;;;;;;6.63;4.00;;;;;;;;;;5053003;28;20488;-37
2021/10/03 09:46:09;;;;;;;7.93;3.67;;;;;;;;;;5053271;28;20497;-40
2021/10/03 09:48:47;;;;;;;6.60;3.70;;;;;;;;;;5052911;28;20048;-43
2021/10/03 09:51:14;;;;;;;6.38;4.10;;;;;;;;;;5052433;28;20045;-47
2021/10/03 09:53:43;;;;;;;6.38;3.60;;;;;;;;;;5034956;28;20025;-41
2021/10/03 09:56:10;;;;;;;5.40;3.47;;;;;;;;;;5052936;28;20048;-42
2021/10/03 09:58:39;;;;;;;5.70;3.55;;;;;;;;;;5034955;28;20373;-43
2021/10/03 10:01:06;;;;;;;7.07;3.47;;;;;;;;;;5052900;28;20031;-41
2021/10/03 10:03:35;;;;;;;4.88;3.20;;;;;;;;;;5052598;28;20017;-40
2021/10/03 10:06:02;;;;;;;8.20;3.45;;;;;;;;;;5052575;28;20107;-41
2021/10/03 10:08:30;;;;;;;7.32;3.47;;;;;;;;;;5052631;28;20420;-41
2021/10/03 10:11:01;;;;;;;6.00;3.10;;;;;;;;;;5052749;28;20041;-41
2021/10/03 10:13:29;;;;;;;5.50;3.30;;;;;;;;;;5052788;28;20423;-40
2021/10/03 10:16:16;;;;;;;5.72;3.50;;;;;;;;;;5052352;28;20739;-40
2021/10/03 10:18:43;;;;;;;4.47;3.13;;;;;;;;;;5052418;28;20028;-40
2021/10/03 10:21:21;;;;;;;6.68;3.45;;;;;;;;;;5052697;28;20028;-45
2021/10/03 10:23:49;;;;;;;5.78;2.95;;;;;;;;;;5052590;28;20036;-45
2021/10/03 10:26:36;;;;;;;5.15;2.78;;;;;;;;;;5052426;28;20024;-53
2021/10/03 10:32:03;;;;;;;8.00;3.03;;;;;;;;;;5140688;22;20098;-41
2021/10/03 10:34:30;;;;;;;4.55;2.90;;;;;;;;;;5052136;28;20021;-40
2021/10/03 10:36:58;;;;;;;6.20;2.90;;;;;;;;;;5052524;28;20484;-43
2021/10/03 10:39:26;;;;;;;4.20;2.63;;;;;;;;;;5052395;28;20028;-41
2021/10/03 10:41:55;;;;;;;6.28;2.58;;;;;;;;;;5052186;28;20028;-39
2021/10/03 10:44:28;;;;;;;4.10;2.53;;;;;;;;;;5052606;28;20102;-40
2021/10/03 10:46:56;;;;;;;4.57;2.70;;;;;;;;;;5051854;28;20468;-42
2021/10/03 10:49:35;;;;;;;9.45;2.95;;;;;;;;;;5052382;28;20025;-46
2021/10/03 10:52:22;;;;;;;5.53;2.80;;;;;;;;;;5051948;28;20029;-42
2021/10/03 10:55:01;;;;;;;4.47;2.47;;;;;;;;;;5052308;28;20024;-43
2021/10/03 10:57:29;;;;;;;5.10;2.35;;;;;;;;;;5051844;28;20017;-48
2021/10/03 11:00:25;;;;;;;4.40;2.20;;;;;;;;;;5052520;28;20082;-52
2021/10/03 11:02:55;;;;;;;4.65;2.40;;;;;;;;;;5035708;28;20083;-40
2021/10/03 11:05:34;;;;;;;3.88;2.40;;;;;;;;;;5051764;28;20100;-42
2021/10/03 11:08:08;;;;;;;4.22;2.53;;;;;;;;;;5051734;28;20017;-41
2021/10/03 11:10:53;;;;;;;4.68;2.47;;;;;;;;;;5034104;28;20060;-41
2021/10/03 11:13:38;;;;;;;5.00;2.53;;;;;;;;;;5051794;28;20033;-41
2021/10/03 11:16:24;;;;;;;5.25;2.10;;;;;;;;;;5051540;28;20017;-40
2021/10/03 11:18:54;;;;;;;3.63;2.08;;;;;;;;;;5052302;28;20079;-41
2021/10/03 11:21:28;;;;;;;3.33;2.17;;;;;;;;;;5051951;28;20044;-41
2021/10/03 11:23:55;;;;;;;4.50;2.25;;;;;;;;;;5052418;28;20082;-42
2021/10/03 11:26:23;;;;;;;2.38;1.70;;;;;;;;;;5051008;28;20029;-38
2021/10/03 11:28:58;;;;;;;5.05;1.98;;;;;;;;;;5051647;28;20108;-41
2021/10/03 11:31:44;;;;;;;3.95;2.08;;;;;;;;;;5051296;28;20045;-41
2021/10/03 11:34:25;;;;;;;4.20;1.95;;;;;;;;;;5064481;28;20491;-40
2021/10/03 11:36:52;;;;;;;3.25;1.70;;;;;;;;;;5070937;28;20024;-40
2021/10/03 11:39:33;;;;;;;4.30;1.88;;;;;;;;;;5071888;28;20375;-41
2021/10/03 11:42:00;;;;;;;2.30;1.77;;;;;;;;;;5053474;28;20037;-39
2021/10/03 11:44:27;;;;;;;5.18;2.17;;;;;;;;;;5071343;28;20082;-41
2021/10/03 11:47:00;;;;;;;4.57;1.77;;;;;;;;;;5071592;28;20100;-41
2021/10/03 11:49:30;;;;;;;4.03;1.83;;;;;;;;;;5070752;28;20094;-41
2021/10/03 11:51:58;;;;;;;3.53;1.83;;;;;;;;;;5071514;28;20021;-41
2021/10/03 11:54:38;;;;;;;3.20;1.80;;;;;;;;;;5071297;28;20027;-39
2021/10/03 11:57:15;;;;;;;2.33;1.55;;;;;;;;;;5071424;28;20036;-39
2021/10/03 11:59:43;;;;;;;2.55;1.70;;;;;;;;;;5071851;28;20096;-47
2021/10/03 12:02:17;;;;;;;4.53;1.65;;;;;;;;;;5071434;28;20031;-40
2021/10/03 12:04:55;;;;;;;4.82;1.48;;;;;;;;;;5071492;28;20423;-41
2021/10/03 12:07:22;;;;;;;2.25;1.60;;;;;;;;;;5070616;28;20025;-41
2021/10/03 12:09:59;;;;;;;4.78;1.77;;;;;;;;;;5071579;28;20032;-42
2021/10/03 12:12:45;;;;;;;3.10;1.27;;;;;;;;;;5070621;28;20480;-44
2021/10/03 12:15:32;;;;;;;4.53;1.63;;;;;;;;;;5071518;28;20031;-43
2021/10/03 12:17:59;;;;;;;6.03;1.30;;;;;;;;;;5074902;28;20033;-46
2021/10/03 12:20:26;;;;;;;2.90;1.58;;;;;;;;;;5057016;28;20025;-41
2021/10/03 12:22:54;;;;;;;4.50;1.70;;;;;;;;;;5056753;28;20434;-41
2021/10/03 12:25:21;;;;;;;2.70;1.27;;;;;;;;;;5074578;28;20055;-41
2021/10/03 12:27:58;;;;;;;3.50;1.45;;;;;;;;;;5074193;28;20446;-40
2021/10/03 12:30:25;;;;;;;2.53;1.40;;;;;;;;;;5074428;28;20045;-41
2021/10/03 12:33:02;;;;;;;2.70;1.40;;;;;;;;;;5074696;28;20104;-41
2021/10/03 12:35:29;;;;;;;3.00;1.45;;;;;;;;;;5074892;28;20042;-42
2021/10/03 12:37:56;;;;;;;2.88;1.30;;;;;;;;;;5074408;28;20025;-44
2021/10/03 12:40:23;;;;;;;2.80;1.40;;;;;;;;;;5074688;28;20051;-43
2021/10/03 12:42:50;;;;;;;6.97;1.77;;;;;;;;;;5074607;28;20032;-40
2021/10/03 12:45:17;;;;;;;2.20;1.35;;;;;;;;;;5056107;28;20029;-41
2021/10/03 12:47:44;;;;;;;2.90;1.38;;;;;;;;;;5073958;28;20017;-40
2021/10/03 12:50:12;;;;;;;3.92;1.40;;;;;;;;;;5074269;28;20031;-40
2021/10/03 12:52:38;;;;;;;2.70;1.40;;;;;;;;;;5074649;28;20471;-40
2021/10/03 12:55:07;;;;;;;3.50;1.42;;;;;;;;;;5074337;28;20439;-46
2021/10/03 12:57:34;;;;;;;3.38;1.30;;;;;;;;;;5073770;28;20024;-42
2021/10/03 13:00:01;;;;;;;4.85;1.25;;;;;;;;;;5055818;28;20047;-41
2021/10/03 13:02:28;;;;;;;6.28;1.60;;;;;;;;;;5074148;28;20016;-41
2021/10/03 13:04:54;;;;;;;3.45;1.30;;;;;;;;;;5074126;28;20028;-41
2021/10/03 13:07:22;;;;;;;3.33;1.27;;;;;;;;;;5073863;28;20046;-41
2021/10/03 13:09:49;;;;;;;10.35;1.48;;;;;;;;;;5073400;28;20021;-44
2021/10/03 13:12:16;;;;;;;5.13;1.60;;;;;;;;;;5074125;28;20108;-40
2021/10/03 13:14:43;;;;;;;6.57;1.27;;;;;;;;;;5074045;28;20013;-40
2021/10/03 13:17:10;;;;;;;5.28;1.45;;;;;;;;;;5072796;28;20112;-41
2021/10/03 13:19:37;;;;;;;3.63;1.30;;;;;;;;;;5073557;28;20024;-41
2021/10/03 13:22:04;;;;;;;2.72;1.25;;;;;;;;;;5073959;28;20021;-41
2021/10/03 13:24:31;;;;;;;5.75;1.30;;;;;;;;;;5073561;28;20081;-42
2021/10/03 13:26:58;;;;;;;4.82;1.25;;;;;;;;;;5073677;28;20025;-41
2021/10/03 13:29:25;;;;;;;2.92;1.17;;;;;;;;;;5072665;28;20028;-41
2021/10/03 13:31:52;;;;;;;1.90;1.23;;;;;;;;;;5073417;28;20500;-41
2021/10/03 13:34:19;;;;;;;4.30;1.23;;;;;;;;;;5073158;28;20021;-45
2021/10/03 13:36:46;;;;;;;4.05;1.30;;;;;;;;;;5073128;28;20508;-42
2021/10/03 13:39:13;;;;;;;4.55;1.05;;;;;;;;;;5073127;28;20020;-54
2021/10/03 13:44:22;;;;;;;7.40;1.73;;;;;;;;;;5173041;23;20506;-40
2021/10/03 13:46:49;;;;;;;3.45;1.10;;;;;;;;;;5092907;28;20035;-43
2021/10/03 13:49:16;;;;;;;3.15;1.30;;;;;;;;;;5093262;28;20514;-47
2021/10/03 13:51:43;;;;;;;4.28;1.58;;;;;;;;;;5093378;28;20046;-47
2021/10/03 13:54:10;;;;;;;2.53;0.98;;;;;;;;;;5092770;28;20023;-45
2021/10/03 13:56:38;;;;;;;3.08;1.10;;;;;;;;;;5092784;28;20174;-41
2021/10/03 13:59:07;;;;;;;3.95;1.35;;;;;;;;;;5092202;28;20495;-42
2021/10/03 14:01:34;;;;;;;5.30;1.30;;;;;;;;;;5093104;28;20044;-42
2021/10/03 14:04:01;;;;;;;3.65;1.10;;;;;;;;;;5092257;28;20085;-41
2021/10/03 14:06:28;;;;;;;5.57;1.27;;;;;;;;;;5092938;28;20046;-42
2021/10/03 14:08:55;;;;;;;4.50;1.20;;;;;;;;;;5091797;28;20016;-44
2021/10/03 14:11:22;;;;;;;5.60;1.02;;;;;;;;;;5090326;28;20109;-42
2021/10/03 14:16:53;;;;;;;12.05;1.08;;;;;;;;;;4662802;28;20056;-41
2021/10/03 14:19:20;;;;;;;4.30;1.23;;;;;;;;;;5030476;28;20152;-42
2021/10/03 14:21:48;;;;;;;4.75;1.20;;;;;;;;;;5037892;28;20029;-39
2021/10/03 14:24:18;;;;;;;6.00;1.60;;;;;;;;;;5038706;28;20029;-38
2021/10/03 14:26:46;;;;;;;5.47;1.50;;;;;;;;;;5029932;28;20040;-37
2021/10/03 14:29:13;;;;;;;5.57;1.20;;;;;;;;;;5021983;28;20473;-39
2021/10/03 14:31:40;;;;;;;4.82;1.20;;;;;;;;;;5042927;28;20037;-40
2021/10/03 14:34:07;;;;;;;3.30;1.02;;;;;;;;;;5037474;28;20026;-39
2021/10/03 14:36:34;;;;;;;8.23;1.55;;;;;;;;;;5039244;28;20067;-42
2021/10/03 14:39:01;;;;;;;4.88;0.98;;;;;;;;;;5030199;28;20025;-40
2021/10/03 14:41:28;;;;;;;3.38;1.15;;;;;;;;;;5032617;28;20029;-38
2021/10/03 14:43:55;;;;;;;6.35;1.25;;;;;;;;;;5035374;28;20100;-38
2021/10/03 14:46:22;;;;;;;6.30;1.20;;;;;;;;;;5034256;28;20083;-38